createdAt,value
2022-09-10T00:00:33.219Z,15.09
2022-09-10T00:03:41.535Z,15.06
2022-09-10T00:06:49.398Z,15.05
2022-09-10T00:09:57.221Z,15.01
2022-09-10T00:13:05.390Z,14.98
2022-09-10T00:16:13.632Z,14.98
2022-09-10T00:19:21.581Z,14.98
2022-09-10T00:22:29.686Z,15.03
2022-09-10T00:25:37.162Z,15.06
2022-09-10T00:28:45.343Z,15.12
2022-09-10T00:31:53.270Z,15.15
2022-09-10T00:35:00.708Z,15.20
2022-09-10T00:38:08.856Z,15.24
2022-09-10T00:41:16.620Z,15.23
2022-09-10T00:44:24.138Z,15.27
2022-09-10T00:47:32.461Z,15.24
2022-09-10T00:50:39.797Z,15.31
2022-09-10T00:53:48.020Z,15.39
2022-09-10T00:56:56.501Z,15.36
2022-09-10T01:00:03.922Z,15.33
2022-09-10T01:03:12.132Z,15.36
2022-09-10T01:06:20.214Z,15.31
2022-09-10T01:09:28.196Z,15.38
2022-09-10T01:12:36.202Z,15.41
2022-09-10T01:15:44.044Z,15.38
2022-09-10T01:18:51.887Z,15.33
2022-09-10T01:21:59.788Z,15.26
2022-09-10T01:25:08.095Z,15.23
2022-09-10T01:28:16.131Z,15.27
2022-09-10T01:31:24.023Z,15.30
2022-09-10T01:34:32.280Z,15.31
2022-09-10T01:37:39.669Z,15.36
2022-09-10T01:40:47.935Z,15.35
2022-09-10T01:43:55.885Z,15.30
2022-09-10T01:47:03.255Z,15.28
2022-09-10T01:50:11.305Z,15.36
2022-09-10T01:53:19.668Z,15.41
2022-09-10T01:56:27.170Z,15.45
2022-09-10T01:59:35.531Z,15.45
2022-09-10T02:02:43.360Z,15.48
2022-09-10T02:05:51.380Z,15.54
2022-09-10T02:08:59.680Z,15.59
2022-09-10T02:12:07.818Z,15.63
2022-09-10T02:15:15.799Z,15.64
2022-09-10T02:18:23.612Z,15.70
2022-09-10T02:21:31.542Z,15.68
2022-09-10T02:24:39.536Z,15.68
2022-09-10T02:27:47.347Z,15.68
2022-09-10T02:30:55.392Z,15.68
2022-09-10T02:34:03.497Z,15.67
2022-09-10T02:37:11.298Z,15.70
2022-09-10T02:40:19.420Z,15.68
2022-09-10T02:43:27.388Z,15.70
2022-09-10T02:46:35.771Z,15.70
2022-09-10T02:49:43.750Z,15.66
2022-09-10T02:52:51.264Z,15.63
2022-09-10T02:55:59.571Z,15.57
2022-09-10T02:59:07.075Z,15.51
2022-09-10T03:02:15.385Z,15.46
2022-09-10T03:05:23.511Z,15.43
2022-09-10T03:08:31.160Z,15.42
2022-09-10T03:11:39.606Z,15.38
2022-09-10T03:14:47.981Z,15.35
2022-09-10T03:17:55.529Z,15.28
2022-09-10T03:21:03.371Z,15.24
2022-09-10T03:24:14.272Z,15.23
2022-09-10T03:27:12.333Z,15.21
2022-09-10T03:30:20.536Z,15.28
2022-09-10T03:33:28.114Z,15.30
2022-09-10T03:36:36.085Z,15.31
2022-09-10T03:39:43.548Z,15.30
2022-09-10T03:42:51.268Z,15.31
2022-09-10T03:45:59.367Z,15.33
2022-09-10T03:49:07.150Z,15.38
2022-09-10T03:52:14.971Z,15.38
2022-09-10T03:55:23.099Z,15.39
2022-09-10T03:58:30.933Z,15.41
2022-09-10T04:01:38.920Z,15.42
2022-09-10T04:04:46.850Z,15.43
2022-09-10T04:07:55.129Z,15.42
2022-09-10T04:11:03.115Z,15.42
2022-09-10T04:14:10.909Z,15.45
2022-09-10T04:17:18.995Z,15.43
2022-09-10T04:20:26.857Z,15.42
2022-09-10T04:23:34.763Z,15.41
2022-09-10T04:26:43.117Z,15.38
2022-09-10T04:29:50.615Z,15.31
2022-09-10T04:32:58.985Z,15.23
2022-09-10T04:36:07.303Z,15.17
2022-09-10T04:39:14.744Z,15.09
2022-09-10T04:42:23.224Z,15.08
2022-09-10T04:45:31.159Z,15.05
2022-09-10T04:48:39.048Z,15.01
2022-09-10T04:51:47.297Z,14.98
2022-09-10T04:54:54.836Z,14.99
2022-09-10T04:58:03.235Z,14.93
2022-09-10T05:01:10.998Z,14.90
2022-09-10T05:04:18.973Z,14.93
2022-09-10T05:07:27.095Z,14.94
2022-09-10T05:10:34.675Z,14.94
2022-09-10T05:13:42.692Z,14.94
2022-09-10T05:16:50.656Z,14.95
2022-09-10T05:19:59.195Z,15.02
2022-09-10T05:23:07.574Z,15.08
2022-09-10T05:26:16.386Z,15.09
2022-09-10T05:29:25.659Z,15.19
2022-09-10T05:32:34.337Z,15.33
2022-09-10T05:35:42.741Z,15.42
2022-09-10T05:38:51.009Z,15.52
2022-09-10T05:41:58.621Z,15.67
2022-09-10T05:45:06.899Z,15.76
2022-09-10T05:48:15.270Z,15.86
2022-09-10T05:51:22.792Z,16.00
2022-09-10T05:54:31.141Z,16.15
2022-09-10T05:57:38.843Z,16.35
2022-09-10T06:00:46.985Z,16.52
2022-09-10T06:03:55.269Z,16.60
2022-09-10T06:07:03.220Z,16.70
2022-09-10T06:10:11.025Z,16.78
2022-09-10T06:13:18.973Z,16.80
2022-09-10T06:16:26.500Z,16.83
2022-09-10T06:19:34.655Z,16.85
2022-09-10T06:22:42.511Z,16.86
2022-09-10T06:25:50.482Z,16.90
2022-09-10T06:28:58.412Z,16.95
2022-09-10T06:32:06.183Z,17.04
2022-09-10T06:35:13.656Z,17.17
2022-09-10T06:38:21.770Z,17.28
2022-09-10T06:41:29.875Z,17.47
2022-09-10T06:44:37.676Z,17.66
2022-09-10T06:50:50.806Z,17.81
2022-09-10T06:53:58.182Z,17.79
2022-09-10T06:57:06.338Z,17.71
2022-09-10T07:00:14.612Z,17.73
2022-09-10T07:03:22.022Z,17.64
2022-09-10T07:06:30.094Z,17.62
2022-09-10T07:09:37.831Z,17.67
2022-09-10T07:12:45.289Z,17.74
2022-09-10T07:15:53.472Z,17.74
2022-09-10T07:19:01.396Z,17.76
2022-09-10T07:22:09.360Z,17.78
2022-09-10T07:25:17.622Z,17.78
2022-09-10T07:28:25.182Z,17.79
2022-09-10T07:31:33.116Z,17.82
2022-09-10T07:34:40.864Z,17.85
2022-09-10T07:37:49.146Z,17.87
2022-09-10T07:40:57.165Z,17.91
2022-09-10T07:44:05.246Z,18.02
2022-09-10T07:47:13.735Z,18.10
2022-09-10T07:50:21.432Z,18.21
2022-09-10T07:53:29.752Z,18.34
2022-09-10T07:56:38.274Z,18.49
2022-09-10T07:59:45.835Z,18.59
2022-09-10T08:02:53.890Z,18.77
2022-09-10T08:06:01.753Z,18.80
2022-09-10T08:09:09.367Z,18.87
2022-09-10T08:12:17.662Z,18.95
2022-09-10T08:15:25.394Z,19.01
2022-09-10T08:18:32.946Z,19.10
2022-09-10T08:21:41.003Z,19.21
2022-09-10T08:24:49.511Z,19.32
2022-09-10T08:27:57.451Z,19.39
2022-09-10T08:31:05.417Z,19.42
2022-09-10T08:34:13.637Z,19.51
2022-09-10T08:37:21.475Z,19.65
2022-09-10T08:40:29.116Z,19.86
2022-09-10T08:43:36.925Z,20.03
2022-09-10T08:46:44.819Z,20.27
2022-09-10T08:49:53.237Z,20.34
2022-09-10T08:53:02.142Z,20.34
2022-09-10T08:56:09.892Z,20.31
2022-09-10T08:59:18.220Z,20.50
2022-09-10T09:02:47.237Z,20.69
2022-09-10T09:05:31.736Z,20.68
2022-09-10T09:08:39.995Z,20.65
2022-09-10T09:11:48.488Z,20.58
2022-09-10T09:14:56.329Z,20.50
2022-09-10T09:18:04.118Z,20.41
2022-09-10T09:21:12.074Z,20.35
2022-09-10T09:24:20.293Z,20.27
2022-09-10T09:27:28.173Z,20.33
2022-09-10T09:30:35.996Z,20.38
2022-09-10T09:33:44.257Z,20.41
2022-09-10T09:36:52.247Z,20.50
2022-09-10T09:40:00.302Z,20.59
2022-09-10T09:43:08.229Z,20.58
2022-09-10T09:46:16.367Z,20.47
2022-09-10T09:49:24.513Z,20.30
2022-09-10T09:52:32.252Z,20.27
2022-09-10T09:55:39.986Z,20.25
2022-09-10T09:58:47.306Z,20.38
2022-09-10T10:01:55.653Z,20.54
2022-09-10T10:05:04.012Z,20.56
2022-09-10T10:08:11.567Z,20.42
2022-09-10T10:11:19.539Z,20.46
2022-09-10T10:14:27.792Z,20.43
2022-09-10T10:17:35.272Z,20.39
2022-09-10T10:20:42.933Z,20.43
2022-09-10T10:23:50.354Z,20.53
2022-09-10T10:26:58.045Z,20.59
2022-09-10T10:30:06.496Z,20.68
2022-09-10T10:33:13.978Z,20.81
2022-09-10T10:36:21.488Z,20.96
2022-09-10T10:39:29.406Z,20.99
2022-09-10T10:42:37.741Z,21.01
2022-09-10T10:45:45.392Z,21.11
2022-09-10T10:48:52.933Z,21.13
2022-09-10T10:52:00.973Z,21.01
2022-09-10T10:55:08.445Z,20.95
2022-09-10T10:58:16.787Z,21.17
2022-09-10T11:01:24.974Z,21.57
2022-09-10T11:04:32.299Z,21.91
2022-09-10T11:07:40.721Z,22.09
2022-09-10T11:10:48.169Z,22.25
2022-09-10T11:13:57.261Z,22.12
2022-09-10T11:17:05.563Z,22.04
2022-09-10T11:20:29.979Z,21.95
2022-09-10T11:23:18.744Z,22.01
2022-09-10T11:26:27.116Z,22.04
2022-09-10T11:29:34.497Z,22.25
2022-09-10T11:32:42.459Z,22.53
2022-09-10T11:35:50.479Z,22.65
2022-09-10T11:38:57.973Z,22.86
2022-09-10T11:42:06.182Z,23.22
2022-09-10T11:45:14.095Z,23.58
2022-09-10T11:48:21.911Z,23.83
2022-09-10T11:51:30.086Z,23.95
2022-09-10T11:54:37.666Z,24.00
2022-09-10T11:57:45.378Z,23.98
2022-09-10T12:00:53.199Z,23.85
2022-09-10T12:04:01.200Z,23.60
2022-09-10T12:07:09.111Z,23.31
2022-09-10T12:10:17.030Z,22.97
2022-09-10T12:13:25.295Z,22.75
2022-09-10T12:16:33.029Z,22.56
2022-09-10T12:19:41.654Z,22.34
2022-09-10T12:22:49.728Z,22.10
2022-09-10T12:25:57.507Z,21.82
2022-09-10T12:29:05.549Z,21.67
2022-09-10T12:32:13.228Z,21.44
2022-09-10T12:35:21.781Z,21.24
2022-09-10T12:38:30.293Z,21.14
2022-09-10T12:41:37.725Z,21.05
2022-09-10T12:44:45.878Z,21.05
2022-09-10T12:47:53.697Z,21.13
2022-09-10T12:51:01.668Z,21.23
2022-09-10T12:54:09.610Z,21.24
2022-09-10T12:57:17.989Z,21.14
2022-09-10T13:00:25.970Z,21.17
2022-09-10T13:03:33.822Z,21.34
2022-09-10T13:06:42.094Z,21.57
2022-09-10T13:09:49.887Z,21.59
2022-09-10T13:12:57.646Z,21.54
2022-09-10T13:16:05.533Z,21.63
2022-09-10T13:19:12.953Z,21.64
2022-09-10T13:22:21.301Z,21.64
2022-09-10T13:25:29.279Z,21.56
2022-09-10T13:28:37.155Z,21.51
2022-09-10T13:31:45.635Z,21.42
2022-09-10T13:34:53.701Z,21.27
2022-09-10T13:38:01.267Z,21.20
2022-09-10T13:41:09.497Z,21.06
2022-09-10T13:44:17.025Z,20.99
2022-09-10T13:47:25.482Z,20.98
2022-09-10T13:50:33.881Z,21.04
2022-09-10T13:53:41.665Z,20.90
2022-09-10T13:56:49.902Z,20.64
2022-09-10T13:59:57.734Z,20.46
2022-09-10T14:03:05.738Z,20.38
2022-09-10T14:06:14.004Z,20.43
2022-09-10T14:09:21.481Z,20.50
2022-09-10T14:12:29.478Z,20.47
2022-09-10T14:15:37.957Z,20.58
2022-09-10T14:18:45.756Z,20.56
2022-09-10T14:21:53.782Z,20.66
2022-09-10T14:25:01.815Z,20.66
2022-09-10T14:28:09.934Z,20.74
2022-09-10T14:31:17.943Z,20.77
2022-09-10T14:34:26.070Z,20.80
2022-09-10T14:37:33.949Z,20.71
2022-09-10T14:40:41.972Z,20.71
2022-09-10T14:43:51.236Z,20.66
2022-09-10T14:46:59.044Z,20.64
2022-09-10T14:50:07.424Z,20.58
2022-09-10T14:53:16.395Z,20.46
2022-09-10T14:56:24.407Z,20.30
2022-09-10T14:59:32.548Z,20.27
2022-09-10T15:02:41.270Z,20.30
2022-09-10T15:05:49.050Z,20.39
2022-09-10T15:08:56.652Z,20.62
2022-09-10T15:12:04.806Z,20.91
2022-09-10T15:15:15.266Z,21.16
2022-09-10T15:18:14.574Z,21.42
2022-09-10T15:21:22.484Z,21.63
2022-09-10T15:24:30.296Z,21.90
2022-09-10T15:27:38.681Z,22.19
2022-09-10T15:30:46.238Z,22.13
2022-09-10T15:33:54.692Z,22.10
2022-09-10T15:37:02.705Z,22.01
2022-09-10T15:40:10.290Z,21.99
2022-09-10T15:43:18.244Z,21.92
2022-09-10T15:46:26.644Z,21.85
2022-09-10T15:49:34.136Z,21.67
2022-09-10T15:52:42.022Z,21.41
2022-09-10T15:55:49.879Z,21.14
2022-09-10T15:58:57.493Z,21.05
2022-09-10T16:02:05.601Z,20.91
2022-09-10T16:05:13.412Z,20.66
2022-09-10T16:08:21.124Z,20.46
2022-09-10T16:11:29.943Z,20.23
2022-09-10T16:14:37.995Z,20.09
2022-09-10T16:17:45.960Z,19.91
2022-09-10T16:20:54.082Z,19.83
2022-09-10T16:24:03.005Z,19.73
2022-09-10T16:27:11.117Z,19.68
2022-09-10T16:30:19.283Z,19.69
2022-09-10T16:33:28.170Z,19.66
2022-09-10T16:36:36.244Z,19.72
2022-09-10T16:39:44.145Z,19.80
2022-09-10T16:42:52.536Z,19.91
2022-09-10T16:46:00.205Z,20.00
2022-09-10T16:49:08.611Z,20.03
2022-09-10T16:52:16.821Z,20.02
2022-09-10T16:55:24.335Z,19.97
2022-09-10T16:58:35.810Z,19.91
2022-09-10T17:01:33.318Z,19.87
2022-09-10T17:04:41.103Z,19.84
2022-09-10T17:07:49.326Z,19.79
2022-09-10T17:10:56.758Z,19.75
2022-09-10T17:14:05.359Z,19.70
2022-09-10T17:17:13.287Z,19.58
2022-09-10T17:20:20.956Z,19.53
2022-09-10T17:23:29.417Z,19.40
2022-09-10T17:26:37.943Z,19.35
2022-09-10T17:29:45.546Z,19.31
2022-09-10T17:32:53.495Z,19.23
2022-09-10T17:36:01.689Z,19.18
2022-09-10T17:39:09.598Z,19.15
2022-09-10T17:42:17.837Z,19.08
2022-09-10T17:45:25.945Z,18.98
2022-09-10T17:48:33.991Z,18.91
2022-09-10T17:51:42.435Z,18.86
2022-09-10T17:54:50.264Z,18.83
2022-09-10T17:57:58.196Z,18.74
2022-09-10T18:01:06.338Z,18.59
2022-09-10T18:04:14.361Z,18.47
2022-09-10T18:07:22.220Z,18.33
2022-09-10T18:10:29.921Z,18.22
2022-09-10T18:13:38.556Z,18.18
2022-09-10T18:16:46.714Z,18.10
2022-09-10T18:19:54.733Z,18.04
2022-09-10T18:23:02.825Z,17.99
2022-09-10T18:26:10.609Z,17.92
2022-09-10T18:29:19.024Z,17.84
2022-09-10T18:32:27.351Z,17.73
2022-09-10T18:35:35.803Z,17.69
2022-09-10T18:38:44.327Z,17.69
2022-09-10T18:41:52.547Z,17.67
2022-09-10T18:45:00.309Z,17.70
2022-09-10T18:48:08.547Z,17.73
2022-09-10T18:51:16.592Z,17.67
2022-09-10T18:54:25.722Z,17.59
2022-09-10T18:57:34.874Z,17.55
2022-09-10T19:00:42.800Z,17.53
2022-09-10T19:03:51.397Z,17.53
2022-09-10T19:07:00.409Z,17.47
2022-09-10T19:10:08.641Z,17.47
2022-09-10T19:13:16.856Z,17.46
2022-09-10T19:16:25.343Z,17.48
2022-09-10T19:19:33.919Z,17.53
2022-09-10T19:22:42.687Z,17.59
2022-09-10T19:25:50.917Z,17.69
2022-09-10T19:28:58.919Z,17.73
2022-09-10T19:32:07.100Z,17.79
2022-09-10T19:35:15.161Z,17.85
2022-09-10T19:38:37.127Z,17.84
2022-09-10T19:41:28.342Z,17.76
2022-09-10T19:44:36.840Z,17.66
2022-09-10T19:47:44.883Z,17.55
2022-09-10T19:50:52.808Z,17.48
2022-09-10T19:54:01.209Z,17.50
2022-09-10T19:57:08.853Z,17.53
2022-09-10T20:00:36.253Z,17.57
2022-09-10T20:03:22.209Z,17.62
2022-09-10T20:06:30.210Z,17.59
2022-09-10T20:09:40.118Z,17.57
2022-09-10T20:12:48.254Z,17.51
2022-09-10T20:15:57.287Z,17.50
2022-09-10T20:19:06.128Z,17.53
2022-09-10T20:22:13.964Z,17.54
2022-09-10T20:25:22.605Z,17.55
2022-09-10T20:28:31.367Z,17.55
2022-09-10T20:31:40.821Z,17.55
2022-09-10T20:34:48.838Z,17.55
2022-09-10T20:37:56.719Z,17.59
2022-09-10T20:41:04.461Z,17.63
2022-09-10T20:44:12.183Z,17.62
2022-09-10T20:47:19.774Z,17.51
2022-09-10T20:50:27.702Z,17.50
2022-09-10T20:53:35.104Z,17.50
2022-09-10T20:56:43.420Z,17.48
2022-09-10T20:59:51.364Z,17.43
2022-09-10T21:02:59.288Z,17.29
2022-09-10T21:06:07.326Z,17.14
2022-09-10T21:09:15.309Z,17.06
2022-09-10T21:12:22.860Z,17.00
2022-09-10T21:15:31.427Z,16.99
2022-09-10T21:18:38.940Z,16.93
2022-09-10T21:21:46.651Z,16.88
2022-09-10T21:24:54.698Z,16.83
2022-09-10T21:28:02.621Z,16.75
2022-09-10T21:31:10.479Z,16.73
2022-09-10T21:34:18.689Z,16.74
2022-09-10T21:37:26.610Z,16.71
2022-09-10T21:40:34.362Z,16.68
2022-09-10T21:43:42.305Z,16.65
2022-09-10T21:46:50.504Z,16.56
2022-09-10T21:49:58.291Z,16.50
2022-09-10T21:53:06.015Z,16.45
2022-09-10T21:56:14.021Z,16.53
2022-09-10T21:59:21.511Z,16.53
2022-09-10T22:02:29.608Z,16.55
2022-09-10T22:05:37.895Z,16.52
2022-09-10T22:08:45.277Z,16.52
2022-09-10T22:11:53.616Z,16.48
2022-09-10T22:15:01.371Z,16.44
2022-09-10T22:18:09.318Z,16.44
2022-09-10T22:21:17.500Z,16.37
2022-09-10T22:24:25.008Z,16.25
2022-09-10T22:27:33.251Z,16.20
2022-09-10T22:30:41.201Z,16.18
2022-09-10T22:33:49.372Z,16.11
2022-09-10T22:36:57.093Z,16.06
2022-09-10T22:40:04.896Z,16.03
2022-09-10T22:43:12.770Z,15.97
2022-09-10T22:46:20.802Z,15.96
2022-09-10T22:49:28.645Z,15.92
2022-09-10T22:52:36.459Z,15.78
2022-09-10T22:55:44.074Z,15.70
2022-09-10T22:58:52.181Z,15.66
2022-09-10T23:01:59.998Z,15.64
2022-09-10T23:05:07.400Z,15.66
2022-09-10T23:08:15.200Z,15.70
2022-09-10T23:11:23.035Z,15.74
2022-09-10T23:14:30.475Z,15.72
2022-09-10T23:17:38.764Z,15.74
2022-09-10T23:20:46.417Z,15.81
2022-09-10T23:23:54.247Z,15.81
2022-09-10T23:27:02.425Z,15.84
2022-09-10T23:30:10.332Z,15.82
2022-09-10T23:33:18.408Z,15.81
2022-09-10T23:36:26.671Z,15.75
2022-09-10T23:39:34.651Z,15.76
2022-09-10T23:42:42.503Z,15.75
2022-09-10T23:45:50.425Z,15.75
2022-09-10T23:48:58.284Z,15.70
2022-09-10T23:52:06.465Z,15.72
2022-09-10T23:55:14.397Z,15.67
2022-09-10T23:58:22.738Z,15.61
